Time;durP1;ratioP1;P1;durP2;ratioP2;P2;SDS_P1;SDS_P2;PMS_P1;PMS_P2;Temp;Humidity;BMP_temperature;BMP_pressure;BME280_temperature;BME280_humidity;BME280_pressure;Samples;Min_cycle;Max_cycle;Signal;HPM_P1;HPM_P2
2024/02/15 00:00:51;;;;;;;48.67;28.17;;;8.10;99.90;;;;;;5054100;28;20381;-78
2024/02/15 00:03:17;;;;;;;40.03;27.10;;;8.10;99.90;;;;;;5054185;28;20473;-77
2024/02/15 00:05:45;;;;;;;43.47;27.27;;;8.00;99.90;;;;;;5054181;28;20110;-77
2024/02/15 00:08:11;;;;;;;44.07;27.90;;;8.00;99.90;;;;;;5054373;28;20496;-79
2024/02/15 00:10:37;;;;;;;44.07;27.07;;;8.00;99.90;;;;;;5053581;28;20091;-78
2024/02/15 00:13:04;;;;;;;41.87;27.43;;;7.90;99.90;;;;;;5053394;28;20687;-78
2024/02/15 00:15:30;;;;;;;45.47;26.93;;;8.00;99.90;;;;;;5053616;28;20520;-77
2024/02/15 00:17:56;;;;;;;44.17;27.30;;;7.90;99.90;;;;;;5053580;28;20029;-78
2024/02/15 00:20:22;;;;;;;44.40;27.30;;;7.90;99.90;;;;;;5053500;28;20021;-78
2024/02/15 00:22:48;;;;;;;40.23;26.20;;;7.90;99.90;;;;;;5053653;28;20032;-79
2024/02/15 00:25:13;;;;;;;45.40;26.07;;;8.00;99.90;;;;;;5053742;28;20021;-79
2024/02/15 00:27:39;;;;;;;42.53;26.40;;;7.90;99.90;;;;;;5051991;28;20029;-78
2024/02/15 00:30:07;;;;;;;44.53;28.30;;;7.90;99.90;;;;;;5052126;28;20040;-78
2024/02/15 00:32:33;;;;;;;41.67;25.20;;;7.90;99.90;;;;;;5053547;28;20029;-78
2024/02/15 00:34:59;;;;;;;40.67;25.03;;;7.90;99.90;;;;;;5053346;28;20075;-78
2024/02/15 00:37:25;;;;;;;45.23;25.07;;;7.90;99.90;;;;;;5053339;28;20025;-78
2024/02/15 00:39:50;;;;;;;42.83;25.10;;;7.90;99.90;;;;;;5052972;28;20037;-78
2024/02/15 00:42:16;;;;;;;38.93;23.53;;;7.80;99.90;;;;;;5053210;28;20123;-79
2024/02/15 00:44:42;;;;;;;35.67;25.03;;;7.80;99.90;;;;;;5053436;28;20116;-80
2024/02/15 00:47:12;;;;;;;39.03;24.20;;;7.70;99.90;;;;;;5053189;28;20530;-79
2024/02/15 00:49:37;;;;;;;39.73;23.83;;;7.70;99.90;;;;;;5051517;28;20139;-80
2024/02/15 00:52:03;;;;;;;41.27;22.73;;;7.70;99.90;;;;;;5052978;28;20060;-79
2024/02/15 00:54:29;;;;;;;39.27;23.90;;;7.70;99.90;;;;;;5052952;28;20028;-79
2024/02/15 00:56:55;;;;;;;36.43;24.40;;;7.70;99.90;;;;;;5052686;28;20462;-80
2024/02/15 00:59:20;;;;;;;40.87;23.87;;;7.70;99.90;;;;;;5052615;28;20025;-78
2024/02/15 01:01:47;;;;;;;44.97;23.53;;;7.70;99.90;;;;;;5053387;28;20017;-79
2024/02/15 01:04:13;;;;;;;35.73;23.60;;;7.70;99.90;;;;;;5052958;28;20032;-77
2024/02/15 01:06:39;;;;;;;33.50;21.40;;;7.70;99.90;;;;;;5053089;28;20025;-78
2024/02/15 01:09:04;;;;;;;32.07;20.97;;;7.70;99.90;;;;;;5052926;28;20330;-79
2024/02/15 01:11:34;;;;;;;35.30;21.67;;;7.70;99.90;;;;;;5052823;28;20032;-79
2024/02/15 01:14:00;;;;;;;33.93;22.20;;;7.70;99.90;;;;;;5052595;28;20045;-77
2024/02/15 01:16:26;;;;;;;38.23;23.33;;;7.70;99.90;;;;;;5052601;28;20017;-80
2024/02/15 01:18:51;;;;;;;36.23;23.53;;;7.70;99.90;;;;;;5051149;28;20480;-79
2024/02/15 01:21:17;;;;;;;35.97;21.93;;;7.70;99.90;;;;;;5052816;28;20358;-78
2024/02/15 01:23:44;;;;;;;33.80;22.77;;;7.70;99.90;;;;;;5052599;28;20361;-79
2024/02/15 01:26:12;;;;;;;34.13;21.67;;;7.70;99.90;;;;;;5052611;28;20017;-79
2024/02/15 01:28:37;;;;;;;32.10;21.43;;;7.70;99.90;;;;;;5051273;28;20053;-80
2024/02/15 01:31:03;;;;;;;32.97;21.43;;;7.70;99.90;;;;;;5052398;28;20448;-79
2024/02/15 01:33:29;;;;;;;35.13;21.70;;;7.70;99.90;;;;;;5052259;28;20041;-78
2024/02/15 01:35:56;;;;;;;29.10;20.70;;;7.70;99.90;;;;;;5052498;28;20025;-79
2024/02/15 01:38:21;;;;;;;33.70;21.03;;;7.70;99.90;;;;;;5052283;28;20117;-79
2024/02/15 01:40:48;;;;;;;31.00;18.83;;;7.70;99.90;;;;;;5052362;28;20057;-79
2024/02/15 01:43:14;;;;;;;29.33;18.87;;;7.70;99.90;;;;;;5052348;28;20040;-79
2024/02/15 01:45:40;;;;;;;26.37;18.50;;;7.70;99.90;;;;;;5052303;28;20036;-79
2024/02/15 01:48:06;;;;;;;27.10;18.03;;;7.70;99.90;;;;;;5052248;28;20483;-79
2024/02/15 01:50:34;;;;;;;28.40;18.77;;;7.70;99.90;;;;;;5052072;28;20033;-79
2024/02/15 01:53:01;;;;;;;26.90;17.97;;;7.70;99.90;;;;;;5051857;28;20464;-77
2024/02/15 01:55:27;;;;;;;26.57;17.77;;;7.70;99.90;;;;;;5052039;28;20040;-78
2024/02/15 01:57:53;;;;;;;34.20;18.83;;;7.70;99.90;;;;;;5050734;28;20025;-80
2024/02/15 02:00:19;;;;;;;29.83;19.50;;;7.70;99.90;;;;;;5049015;28;20025;-77
2024/02/15 02:02:46;;;;;;;29.03;19.67;;;7.70;99.90;;;;;;5048852;28;20039;-80
2024/02/15 02:05:12;;;;;;;29.60;18.37;;;7.70;99.90;;;;;;5051455;28;20017;-79
2024/02/15 02:07:38;;;;;;;26.70;17.20;;;7.70;99.90;;;;;;5061508;28;20980;-80
2024/02/15 02:10:05;;;;;;;28.73;18.43;;;7.70;99.90;;;;;;5072427;28;20013;-79
2024/02/15 02:12:32;;;;;;;26.47;17.10;;;7.60;99.90;;;;;;5072886;28;20033;-78
2024/02/15 02:14:57;;;;;;;26.37;17.63;;;7.60;99.90;;;;;;5072945;28;20419;-79
2024/02/15 02:17:23;;;;;;;27.17;18.20;;;7.60;99.90;;;;;;5072646;28;20032;-79
2024/02/15 02:19:50;;;;;;;28.23;17.83;;;7.60;99.90;;;;;;5072848;28;20504;-79
2024/02/15 02:22:17;;;;;;;26.33;17.77;;;7.60;99.90;;;;;;5072345;28;20464;-79
2024/02/15 02:25:13;;;;;;;25.70;17.50;;;7.60;99.90;;;;;;5072997;28;20025;-79
2024/02/15 02:27:39;;;;;;;24.93;16.83;;;7.60;99.90;;;;;;5072374;28;20029;-80
2024/02/15 02:30:14;;;;;;;32.37;17.80;;;7.60;99.90;;;;;;5072705;28;20032;-81
2024/02/15 02:32:43;;;;;;;29.17;17.80;;;7.60;99.90;;;;;;5071086;28;20044;-80
2024/02/15 02:35:11;;;;;;;28.83;18.50;;;7.60;99.90;;;;;;5071120;28;20104;-79
2024/02/15 02:37:38;;;;;;;24.67;17.33;;;7.60;99.90;;;;;;5072692;28;20050;-80
2024/02/15 02:40:08;;;;;;;29.87;16.13;;;7.60;99.90;;;;;;5072950;28;20097;-80
2024/02/15 02:42:35;;;;;;;25.50;15.23;;;7.60;99.90;;;;;;5072708;28;20116;-79
2024/02/15 02:45:01;;;;;;;23.23;15.77;;;7.50;99.90;;;;;;5072647;28;20449;-80
2024/02/15 02:47:27;;;;;;;23.03;15.60;;;7.50;99.90;;;;;;5072797;28;20055;-79
2024/02/15 02:49:52;;;;;;;26.63;15.77;;;7.50;99.90;;;;;;5071337;28;20052;-78
2024/02/15 02:52:18;;;;;;;18.30;13.43;;;7.50;99.90;;;;;;5088252;28;20109;-79
2024/02/15 02:54:44;;;;;;;23.53;13.37;;;7.50;99.90;;;;;;5072444;28;20395;-80
2024/02/15 02:57:09;;;;;;;18.90;13.43;;;7.50;99.90;;;;;;5072550;28;20024;-80
2024/02/15 02:59:35;;;;;;;20.23;13.23;;;7.40;99.90;;;;;;5088255;28;20484;-80
2024/02/15 03:02:03;;;;;;;21.77;13.63;;;7.40;99.90;;;;;;5072771;28;20527;-79
2024/02/15 03:04:29;;;;;;;20.30;12.63;;;7.40;99.90;;;;;;5072570;28;20025;-79
2024/02/15 03:06:57;;;;;;;20.47;13.57;;;7.40;99.90;;;;;;5072272;28;20101;-79
2024/02/15 03:09:22;;;;;;;21.77;14.53;;;7.50;99.90;;;;;;5072364;28;20107;-80
2024/02/15 03:11:49;;;;;;;23.70;14.90;;;7.40;99.90;;;;;;5072224;28;20104;-78
2024/02/15 03:14:15;;;;;;;25.27;14.60;;;7.50;99.90;;;;;;5072354;28;20119;-80
2024/02/15 03:16:40;;;;;;;22.70;15.07;;;7.50;99.90;;;;;;5087604;28;20454;-80
2024/02/15 03:19:09;;;;;;;21.40;14.00;;;7.50;99.90;;;;;;5072072;28;20388;-80
2024/02/15 03:21:35;;;;;;;22.43;13.60;;;7.50;99.90;;;;;;5073357;28;20547;-80
2024/02/15 03:24:01;;;;;;;22.43;13.90;;;7.50;99.90;;;;;;5076131;28;20031;-80
2024/02/15 03:26:36;;;;;;;18.00;12.57;;;7.50;99.90;;;;;;5076086;28;20396;-80
2024/02/15 03:29:03;;;;;;;24.73;12.80;;;7.50;99.90;;;;;;5076090;28;20024;-80
2024/02/15 03:31:29;;;;;;;17.43;12.40;;;7.50;99.90;;;;;;5076225;28;20081;-80
2024/02/15 03:33:55;;;;;;;16.73;12.00;;;7.50;99.90;;;;;;5075849;28;20036;-80
2024/02/15 03:36:21;;;;;;;17.00;12.33;;;7.40;99.90;;;;;;5076008;28;20036;-80
2024/02/15 03:38:47;;;;;;;16.67;11.87;;;7.40;99.90;;;;;;5075964;28;20038;-81
2024/02/15 03:41:13;;;;;;;18.63;13.13;;;7.40;99.90;;;;;;5075741;28;20096;-79
2024/02/15 03:43:38;;;;;;;23.03;13.20;;;7.40;99.90;;;;;;5075594;28;20078;-80
2024/02/15 03:46:04;;;;;;;23.60;13.27;;;7.30;99.90;;;;;;5075642;28;20020;-80
2024/02/15 03:48:32;;;;;;;19.20;12.43;;;7.30;99.90;;;;;;5075284;28;20044;-80
2024/02/15 03:50:58;;;;;;;24.37;14.20;;;7.30;99.90;;;;;;5075813;28;20021;-80
2024/02/15 03:53:24;;;;;;;18.93;13.63;;;7.30;99.90;;;;;;5075637;28;20032;-80
2024/02/15 03:55:53;;;;;;;22.47;14.07;;;7.30;99.90;;;;;;5075545;28;20449;-81
2024/02/15 03:58:19;;;;;;;20.17;13.10;;;7.30;99.90;;;;;;5075245;28;20025;-80
2024/02/15 04:00:45;;;;;;;18.43;12.93;;;7.30;99.90;;;;;;5091191;28;20074;-80
2024/02/15 04:03:11;;;;;;;22.17;12.67;;;7.30;99.90;;;;;;5075379;28;20104;-80
2024/02/15 04:05:36;;;;;;;19.37;11.93;;;7.30;99.90;;;;;;5075288;28;20096;-80
2024/02/15 04:08:02;;;;;;;17.80;11.87;;;7.40;99.90;;;;;;5075278;28;20043;-81
2024/02/15 04:10:28;;;;;;;19.57;11.60;;;7.40;99.90;;;;;;5090555;28;20107;-80
2024/02/15 04:12:54;;;;;;;18.83;11.83;;;7.30;99.90;;;;;;5075014;28;20037;-80
2024/02/15 04:15:20;;;;;;;17.63;11.30;;;7.40;99.90;;;;;;5075277;28;20036;-80
2024/02/15 04:17:46;;;;;;;15.13;10.13;;;7.40;99.90;;;;;;5074207;28;20050;-80
2024/02/15 04:20:13;;;;;;;15.67;10.13;;;7.30;99.90;;;;;;5075307;28;20032;-80
2024/02/15 04:22:39;;;;;;;17.27;10.13;;;7.40;99.90;;;;;;5075284;28;20027;-80
2024/02/15 04:25:16;;;;;;;16.67;11.07;;;7.40;99.90;;;;;;5074887;28;20029;-80
2024/02/15 04:27:41;;;;;;;18.57;11.10;;;7.40;99.90;;;;;;5075058;28;20436;-80
2024/02/15 04:30:08;;;;;;;20.53;10.80;;;7.30;99.90;;;;;;5075173;28;20139;-79
2024/02/15 04:32:33;;;;;;;15.47;10.80;;;7.30;99.90;;;;;;5074833;28;20377;-79
2024/02/15 04:35:01;;;;;;;18.43;10.57;;;7.30;99.90;;;;;;5073984;28;20036;-79
2024/02/15 04:37:28;;;;;;;15.60;10.13;;;7.30;99.90;;;;;;5074863;28;20025;-80
2024/02/15 04:39:54;;;;;;;15.50;10.47;;;7.20;99.90;;;;;;5074741;28;20174;-80
2024/02/15 04:42:20;;;;;;;16.23;9.83;;;7.20;99.90;;;;;;5073433;28;20108;-79
2024/02/15 04:44:46;;;;;;;18.30;9.33;;;7.10;99.90;;;;;;5074609;28;20519;-80
2024/02/15 04:47:11;;;;;;;22.10;9.67;;;7.10;99.90;;;;;;5074693;28;20483;-78
2024/02/15 04:49:38;;;;;;;18.50;12.37;;;7.00;99.90;;;;;;5074650;28;20098;-79
2024/02/15 04:52:06;;;;;;;16.13;11.80;;;7.00;99.90;;;;;;5074496;28;20090;-79
2024/02/15 04:54:32;;;;;;;16.17;10.87;;;7.00;99.90;;;;;;5074217;28;20421;-80
2024/02/15 04:56:58;;;;;;;15.03;10.80;;;6.90;99.90;;;;;;5074105;28;20384;-79
2024/02/15 04:59:26;;;;;;;16.13;9.23;;;6.90;99.90;;;;;;5074350;28;20029;-79
2024/02/15 05:01:56;;;;;;;17.20;10.37;;;7.00;99.90;;;;;;5074318;28;20100;-77
2024/02/15 05:04:22;;;;;;;13.97;9.43;;;7.00;99.90;;;;;;5074285;28;20023;-78
2024/02/15 05:06:48;;;;;;;13.73;9.77;;;6.90;99.90;;;;;;5089154;28;20495;-80
2024/02/15 05:09:14;;;;;;;13.37;9.53;;;6.90;99.90;;;;;;5073766;28;20091;-79
2024/02/15 05:11:47;;;;;;;14.17;9.13;;;6.90;99.90;;;;;;5074151;28;20103;-78
2024/02/15 05:14:17;;;;;;;;;;;6.80;99.90;;;;;;5090133;28;20067;-78
2024/02/15 05:16:43;;;;;;;15.10;9.73;;;6.80;99.90;;;;;;5073666;28;19904;-78
2024/02/15 05:19:12;;;;;;;20.97;10.47;;;6.80;99.90;;;;;;5073568;28;20054;-78
2024/02/15 05:21:38;;;;;;;18.20;9.63;;;6.80;99.90;;;;;;5073865;28;20388;-77
2024/02/15 05:24:07;;;;;;;16.03;9.47;;;6.70;99.90;;;;;;5073673;28;20029;-77
2024/02/15 05:26:33;;;;;;;15.80;9.77;;;6.70;99.90;;;;;;5073783;28;20024;-80
2024/02/15 05:28:59;;;;;;;14.93;10.10;;;6.80;99.90;;;;;;5073559;28;20096;-79
2024/02/15 05:31:27;;;;;;;15.77;9.17;;;6.70;99.90;;;;;;5073657;28;20159;-79
2024/02/15 05:33:53;;;;;;;15.37;10.00;;;6.70;99.90;;;;;;5073184;28;20037;-78
2024/02/15 05:36:21;;;;;;;15.53;9.40;;;6.70;99.90;;;;;;5073706;28;20024;-78
2024/02/15 05:38:53;;;;;;;14.10;9.27;;;6.70;99.90;;;;;;5073513;28;20056;-79
2024/02/15 05:41:21;;;;;;;19.67;9.05;;;6.70;99.90;;;;;;5073486;28;20029;-79
2024/02/15 05:43:53;;;;;;;14.03;9.40;;;6.70;99.90;;;;;;5073388;28;20102;-79
2024/02/15 05:46:22;;;;;;;17.73;10.05;;;6.70;99.90;;;;;;5073183;28;20146;-79
2024/02/15 05:48:48;;;;;;;18.37;9.70;;;6.60;99.90;;;;;;5073027;28;20049;-77
2024/02/15 05:51:15;;;;;;;20.90;10.53;;;6.60;99.90;;;;;;5072171;28;20039;-78
2024/02/15 05:53:41;;;;;;;26.23;11.93;;;6.60;99.90;;;;;;5088921;28;20131;-79
2024/02/15 05:56:08;;;;;;;23.67;11.43;;;6.60;99.90;;;;;;5088725;28;20388;-78
2024/02/15 05:58:34;;;;;;;19.73;12.13;;;6.60;99.90;;;;;;5073230;28;20488;-77
2024/02/15 06:01:01;;;;;;;21.73;11.33;;;6.50;99.90;;;;;;5088706;28;20049;-77
2024/02/15 06:03:28;;;;;;;25.73;11.27;;;6.50;99.90;;;;;;5072966;28;20036;-77
2024/02/15 06:06:02;;;;;;;30.23;11.93;;;6.50;99.90;;;;;;5073197;28;20036;-78
2024/02/15 06:08:31;;;;;;;25.50;12.10;;;6.60;99.90;;;;;;5073070;28;20078;-77
2024/02/15 06:10:57;;;;;;;26.23;12.83;;;6.60;99.90;;;;;;5072872;28;20051;-79
2024/02/15 06:13:23;;;;;;;28.53;12.57;;;6.60;99.90;;;;;;5072734;28;20400;-79
2024/02/15 06:15:53;;;;;;;26.27;12.23;;;6.60;99.90;;;;;;5072519;28;20051;-79
2024/02/15 06:18:31;;;;;;;23.57;12.97;;;6.60;99.90;;;;;;5073290;28;20033;-77
2024/02/15 06:20:58;;;;;;;27.87;13.43;;;6.60;99.90;;;;;;5072884;28;20028;-80
2024/02/15 06:23:25;;;;;;;34.20;13.73;;;6.60;99.90;;;;;;5072534;28;20035;-80
2024/02/15 06:25:54;;;;;;;25.70;11.53;;;6.60;99.90;;;;;;5072895;28;20028;-79
2024/02/15 06:42:02;;;;;;;12.37;7.73;;;6.70;99.90;;;;;;5073016;28;20051;-79
2024/02/15 06:44:28;;;;;;;12.07;7.43;;;6.80;99.90;;;;;;5073142;28;20477;-80
2024/02/15 06:46:54;;;;;;;11.80;7.17;;;6.80;99.90;;;;;;5072362;28;20027;-79
2024/02/15 06:49:20;;;;;;;16.10;7.97;;;6.90;99.90;;;;;;5072595;28;20069;-76
2024/02/15 06:51:49;;;;;;;15.70;8.37;;;6.90;99.90;;;;;;5072641;28;20039;-79
2024/02/15 06:54:17;;;;;;;15.43;9.20;;;7.00;99.90;;;;;;5072736;28;20041;-80
2024/02/15 06:56:43;;;;;;;17.33;9.40;;;7.10;99.90;;;;;;5073665;28;20126;-80
2024/02/15 06:59:10;;;;;;;26.53;9.70;;;7.10;99.90;;;;;;5076659;28;20020;-81
2024/02/15 07:01:37;;;;;;;22.77;9.10;;;7.20;99.90;;;;;;5058065;28;20440;-80
2024/02/15 07:04:03;;;;;;;34.63;9.53;;;7.20;99.90;;;;;;5056343;28;20101;-80
2024/02/15 07:06:29;;;;;;;28.50;9.83;;;7.30;99.90;;;;;;5056143;28;20120;-80
2024/02/15 07:08:56;;;;;;;18.23;9.67;;;7.30;99.90;;;;;;5056579;28;20033;-78
2024/02/15 07:11:22;;;;;;;21.20;9.73;;;7.30;99.90;;;;;;5056493;28;20384;-80
2024/02/15 07:13:48;;;;;;;19.23;9.47;;;7.40;99.90;;;;;;5056248;28;20029;-78
2024/02/15 07:16:15;;;;;;;20.20;8.53;;;7.50;99.90;;;;;;5056397;28;20036;-81
2024/02/15 07:18:41;;;;;;;13.07;8.40;;;7.50;99.90;;;;;;5056218;28;20079;-80
2024/02/15 07:21:11;;;;;;;13.97;6.90;;;7.60;99.90;;;;;;5054858;28;20025;-80
2024/02/15 07:23:37;;;;;;;9.37;6.67;;;7.60;99.90;;;;;;5055991;28;20025;-80
2024/02/15 07:26:03;;;;;;;13.77;6.87;;;7.70;99.90;;;;;;5056098;28;20025;-81
2024/02/15 07:28:32;;;;;;;13.17;6.27;;;7.80;99.90;;;;;;5054577;28;20079;-80
2024/02/15 07:31:00;;;;;;;16.27;8.80;;;7.80;99.90;;;;;;5056026;28;20036;-82
2024/02/15 07:33:26;;;;;;;21.67;9.40;;;7.80;99.90;;;;;;5055536;28;20040;-80
2024/02/15 07:35:53;;;;;;;21.57;10.60;;;7.90;99.90;;;;;;5055890;28;20101;-80
2024/02/15 07:38:19;;;;;;;24.37;10.43;;;7.90;99.90;;;;;;5055733;28;20042;-80
2024/02/15 07:40:45;;;;;;;33.70;9.97;;;8.00;99.90;;;;;;5055796;28;20035;-80
2024/02/15 07:43:10;;;;;;;32.90;9.83;;;8.10;99.90;;;;;;5055621;28;20103;-79
2024/02/15 07:45:37;;;;;;;20.07;9.70;;;8.10;99.90;;;;;;5055622;28;20021;-81
2024/02/15 07:48:06;;;;;;;22.23;8.80;;;8.10;99.90;;;;;;5055379;28;20112;-80
2024/02/15 07:50:32;;;;;;;17.67;8.30;;;8.20;99.90;;;;;;5053858;28;20041;-81
2024/02/15 07:52:58;;;;;;;14.87;7.77;;;8.20;99.90;;;;;;5054195;28;20040;-80
2024/02/15 07:55:28;;;;;;;13.30;7.00;;;8.20;99.90;;;;;;5052553;28;20029;-80
2024/02/15 07:57:53;;;;;;;11.70;6.67;;;8.30;99.90;;;;;;5053184;28;20429;-85
2024/02/15 08:00:19;;;;;;;10.63;5.60;;;8.30;99.90;;;;;;5054956;28;20109;-84
2024/02/15 08:02:45;;;;;;;7.90;5.90;;;8.40;99.90;;;;;;5054935;28;20017;-75
2024/02/15 08:05:12;;;;;;;8.37;5.80;;;8.40;99.90;;;;;;5055279;28;20028;-82
2024/02/15 08:07:43;;;;;;;12.30;7.03;;;8.40;99.90;;;;;;5054403;28;20362;-76
2024/02/15 08:10:12;;;;;;;9.70;6.10;;;8.50;99.90;;;;;;5054348;28;20473;-84
2024/02/15 08:12:42;;;;;;;10.70;6.27;;;8.60;99.90;;;;;;5054758;28;20024;-78
2024/02/15 08:15:13;;;;;;;9.50;5.90;;;8.60;99.90;;;;;;5054781;28;20480;-79
2024/02/15 08:17:40;;;;;;;12.60;7.43;;;8.60;99.90;;;;;;5055215;28;20032;-79
2024/02/15 08:20:11;;;;;;;12.30;6.57;;;8.70;99.90;;;;;;5053786;28;20491;-80
2024/02/15 08:22:40;;;;;;;17.83;6.60;;;8.80;99.90;;;;;;5052372;28;20060;-80
2024/02/15 08:25:10;;;;;;;9.43;5.73;;;8.80;99.90;;;;;;5052928;28;20029;-79
2024/02/15 08:27:43;;;;;;;9.23;4.90;;;8.90;99.90;;;;;;5053804;28;20071;-80
2024/02/15 08:30:11;;;;;;;9.43;5.40;;;8.90;99.90;;;;;;5054817;28;20029;-77
2024/02/15 08:32:39;;;;;;;9.63;4.67;;;9.00;99.90;;;;;;5055035;28;20033;-76
2024/02/15 08:35:06;;;;;;;10.93;4.47;;;9.00;99.90;;;;;;5054917;28;20071;-79
2024/02/15 08:37:34;;;;;;;6.43;4.63;;;9.10;99.90;;;;;;5054942;28;20032;-79
2024/02/15 08:40:00;;;;;;;9.47;5.07;;;9.10;99.90;;;;;;5053749;28;20613;-79
2024/02/15 08:42:26;;;;;;;7.53;4.97;;;9.20;99.90;;;;;;5054458;28;20496;-79
2024/02/15 08:44:52;;;;;;;8.03;4.90;;;9.30;99.90;;;;;;5054535;28;20033;-79
2024/02/15 08:47:18;;;;;;;14.20;5.33;;;9.30;99.90;;;;;;5052947;28;20031;-78
2024/02/15 08:49:43;;;;;;;13.17;5.70;;;9.30;99.90;;;;;;4986060;28;20085;-72
2024/02/15 08:52:09;;;;;;;13.40;5.27;;;9.40;99.90;;;;;;4994684;28;20434;-73
2024/02/15 08:54:38;;;;;;;11.93;5.03;;;9.40;99.90;;;;;;4995431;28;20030;-78
2024/02/15 08:57:05;;;;;;;10.47;5.73;;;9.50;99.90;;;;;;4994751;28;20014;-76
2024/02/15 08:59:31;;;;;;;8.27;5.47;;;9.50;99.90;;;;;;4994665;28;20452;-77
2024/02/15 09:01:56;;;;;;;13.60;5.93;;;9.60;99.90;;;;;;4993337;28;20053;-76
2024/02/15 09:04:24;;;;;;;13.63;6.20;;;9.60;99.90;;;;;;4992984;28;20034;-71
2024/02/15 09:06:50;;;;;;;8.73;5.83;;;9.60;99.90;;;;;;4993414;28;20022;-76
2024/02/15 09:09:16;;;;;;;10.97;6.30;;;9.70;99.90;;;;;;4994517;28;20072;-78
2024/02/15 09:11:42;;;;;;;12.07;6.07;;;9.70;99.90;;;;;;4994710;28;20409;-78
2024/02/15 09:14:12;;;;;;;6.53;5.17;;;9.80;99.90;;;;;;5039048;23;20054;-69
2024/02/15 09:16:39;;;;;;;7.10;4.83;;;9.80;99.90;;;;;;5033734;28;20036;-68
2024/02/15 09:19:06;;;;;;;9.10;5.23;;;9.90;99.90;;;;;;5032889;28;20048;-68
2024/02/15 09:21:34;;;;;;;6.83;4.77;;;9.90;99.90;;;;;;5033920;28;20029;-68
2024/02/15 09:24:00;;;;;;;8.03;5.20;;;10.00;99.90;;;;;;5033852;28;20579;-68
2024/02/15 09:26:27;;;;;;;8.50;5.20;;;10.00;99.90;;;;;;5032879;28;20028;-68
2024/02/15 09:28:53;;;;;;;11.57;4.57;;;10.00;99.90;;;;;;5033145;28;20029;-72
2024/02/15 09:31:19;;;;;;;8.83;4.67;;;10.10;99.90;;;;;;5031599;28;20025;-69
2024/02/15 09:33:45;;;;;;;9.43;4.30;;;10.20;99.90;;;;;;5031570;28;20045;-68
2024/02/15 09:36:12;;;;;;;6.70;3.80;;;10.20;99.90;;;;;;5031835;28;20120;-68
2024/02/15 09:38:37;;;;;;;6.87;4.07;;;10.30;99.90;;;;;;5031567;28;20029;-69
2024/02/15 09:41:07;;;;;;;8.30;5.07;;;10.30;99.90;;;;;;5013836;28;20021;-68
2024/02/15 09:43:34;;;;;;;8.80;4.80;;;10.40;99.90;;;;;;5031664;28;20049;-69
2024/02/15 09:46:04;;;;;;;9.20;5.40;;;10.40;99.90;;;;;;5033304;28;20560;-69
2024/02/15 09:48:31;;;;;;;6.93;4.22;;;10.50;99.90;;;;;;5033260;28;20039;-69
2024/02/15 09:50:58;;;;;;;11.77;4.77;;;10.60;99.90;;;;;;5033069;28;20022;-71
2024/02/15 09:53:28;;;;;;;7.90;4.75;;;10.60;99.90;;;;;;5032659;28;20041;-69
2024/02/15 09:55:54;;;;;;;6.37;4.30;;;10.60;99.90;;;;;;5032576;28;20056;-69
2024/02/15 09:58:24;;;;;;;6.57;4.57;;;10.70;99.90;;;;;;5032914;28;20079;-70
2024/02/15 10:00:50;;;;;;;7.37;4.47;;;10.80;99.90;;;;;;5032908;28;20025;-72
2024/02/15 10:03:23;;;;;;;9.63;4.50;;;10.80;99.90;;;;;;5033053;28;20028;-69
2024/02/15 10:05:49;;;;;;;;;;;10.90;99.90;;;;;;5033514;28;20109;-69
2024/02/15 10:08:15;;;;;;;7.73;4.60;;;11.00;99.90;;;;;;5032961;28;19905;-68
2024/02/15 10:10:41;;;;;;;6.78;4.75;;;11.00;99.90;;;;;;5033097;28;20033;-69
2024/02/15 10:13:13;;;;;;;6.00;4.70;;;11.00;99.90;;;;;;5032570;28;20053;-67
2024/02/15 10:15:40;;;;;;;6.65;5.10;;;11.10;99.90;;;;;;5032954;28;20029;-68
2024/02/15 10:18:11;;;;;;;9.75;6.07;;;11.20;99.90;;;;;;5032998;28;20052;-67
2024/02/15 10:20:39;;;;;;;7.85;5.25;;;11.30;99.90;;;;;;5032690;28;20025;-68
2024/02/15 10:23:08;;;;;;;8.38;6.07;;;11.30;99.90;;;;;;5032668;28;20026;-67
2024/02/15 10:25:34;;;;;;;10.32;6.20;;;11.40;99.90;;;;;;5032565;28;20017;-67
2024/02/15 10:28:15;;;;;;;10.35;6.10;;;11.50;99.90;;;;;;5032727;28;20043;-68
2024/02/15 10:30:48;;;;;;;14.00;6.10;;;11.50;99.90;;;;;;5032286;28;20136;-68
2024/02/15 10:33:30;;;;;;;10.20;6.90;;;11.60;99.90;;;;;;5031936;28;20123;-69
2024/02/15 10:36:09;;;;;;;8.18;6.55;;;11.80;99.90;;;;;;5032400;28;20047;-69
2024/02/15 10:38:38;;;;;;;11.90;7.05;;;11.80;99.90;;;;;;5032809;28;20381;-68
2024/02/15 10:41:06;;;;;;;8.43;6.53;;;11.90;99.90;;;;;;5032837;28;20041;-69
2024/02/15 10:43:33;;;;;;;12.00;6.97;;;12.00;99.90;;;;;;5032608;28;20111;-68
2024/02/15 10:46:00;;;;;;;7.72;6.03;;;12.00;99.90;;;;;;5032226;28;20036;-68
2024/02/15 10:48:28;;;;;;;12.40;6.85;;;12.10;99.90;;;;;;5032550;28;20151;-69
2024/02/15 10:50:59;;;;;;;10.27;6.95;;;12.20;99.90;;;;;;5014860;28;20481;-69
2024/02/15 10:53:33;;;;;;;12.05;6.90;;;12.30;99.60;;;;;;5032205;28;20397;-68
2024/02/15 10:56:09;;;;;;;9.45;6.97;;;12.30;99.60;;;;;;5031908;28;20028;-68
2024/02/15 10:58:45;;;;;;;10.23;7.07;;;12.40;99.60;;;;;;5032267;28;20116;-68
2024/02/15 11:01:17;;;;;;;14.35;7.43;;;12.40;99.00;;;;;;5014601;28;20025;-69
2024/02/15 11:03:59;;;;;;;11.30;6.75;;;12.50;98.80;;;;;;5032697;28;20076;-69
2024/02/15 11:06:29;;;;;;;11.98;7.55;;;12.60;99.00;;;;;;5014752;28;20516;-69
2024/02/15 11:08:55;;;;;;;11.18;6.80;;;12.70;98.50;;;;;;5032277;28;20183;-69
2024/02/15 11:11:21;;;;;;;13.05;6.72;;;12.70;97.40;;;;;;5031438;28;20108;-69
2024/02/15 11:13:48;;;;;;;10.60;6.55;;;12.80;97.30;;;;;;5031905;28;20516;-68
2024/02/15 11:16:40;;;;;;;9.30;6.40;;;12.90;97.70;;;;;;5032440;28;20025;-68
2024/02/15 11:19:06;;;;;;;9.30;5.82;;;13.00;98.10;;;;;;5032214;28;20037;-68
2024/02/15 11:21:54;;;;;;;7.20;5.50;;;13.00;97.70;;;;;;5032349;28;20377;-69
2024/02/15 11:24:27;;;;;;;7.75;5.93;;;13.10;97.50;;;;;;5032250;28;20064;-69
2024/02/15 11:27:02;;;;;;;8.95;6.15;;;13.20;97.20;;;;;;5032184;28;20373;-69
2024/02/15 11:29:55;;;;;;;9.27;6.57;;;13.20;96.90;;;;;;5032069;28;20034;-69
2024/02/15 11:32:43;;;;;;;10.63;6.55;;;13.30;96.80;;;;;;5031970;28;20029;-69
2024/02/15 11:35:25;;;;;;;9.90;6.88;;;13.40;96.80;;;;;;5032388;28;20421;-69
2024/02/15 11:37:55;;;;;;;10.00;6.43;;;13.40;96.90;;;;;;5032230;28;20026;-70
2024/02/15 11:40:29;;;;;;;9.95;6.28;;;13.50;95.30;;;;;;5031958;28;20109;-69
2024/02/15 11:42:57;;;;;;;10.75;8.48;;;13.60;95.40;;;;;;5033333;28;20049;-69
2024/02/15 11:45:22;;;;;;;9.88;7.88;;;13.60;95.50;;;;;;5035708;28;20033;-69
2024/02/15 11:47:50;;;;;;;11.15;7.78;;;13.70;95.70;;;;;;5035674;28;20033;-68
2024/02/15 11:50:18;;;;;;;11.32;7.65;;;13.80;96.00;;;;;;5035592;28;20033;-69
2024/02/15 11:52:51;;;;;;;14.73;8.73;;;13.90;95.30;;;;;;5035650;28;20033;-69
2024/02/15 11:55:21;;;;;;;12.48;8.25;;;13.90;95.10;;;;;;5035375;28;20060;-68
2024/02/15 12:20:00;;;;;;;14.13;9.18;;;14.40;91.20;;;;;;5034583;28;20044;-68
2024/02/15 12:22:37;;;;;;;15.10;9.68;;;14.50;91.80;;;;;;5034342;28;20029;-68
2024/02/15 12:25:11;;;;;;;13.45;9.35;;;14.50;90.20;;;;;;5034447;28;20500;-69
2024/02/15 12:27:38;;;;;;;13.85;9.70;;;14.50;91.10;;;;;;5034285;28;20083;-68
2024/02/15 12:30:06;;;;;;;16.95;9.20;;;14.50;90.40;;;;;;5034290;28;20037;-69
2024/02/15 12:32:32;;;;;;;14.63;9.85;;;14.60;91.30;;;;;;5034586;28;20099;-68
2024/02/15 12:35:19;;;;;;;14.68;9.05;;;14.60;92.00;;;;;;5034966;28;20038;-68
2024/02/15 12:37:46;;;;;;;21.45;10.07;;;14.70;90.80;;;;;;5035325;28;20108;-69
2024/02/15 12:40:16;;;;;;;14.95;8.93;;;14.80;89.10;;;;;;5035087;28;20527;-68
2024/02/15 12:42:49;;;;;;;14.57;10.63;;;14.80;89.20;;;;;;5034892;28;20056;-69
2024/02/15 12:45:20;;;;;;;15.82;9.88;;;14.80;88.10;;;;;;5034904;28;20025;-68
2024/02/15 12:47:52;;;;;;;15.27;9.15;;;14.90;87.00;;;;;;5034738;28;20025;-68
2024/02/15 12:50:19;;;;;;;;;;;14.90;86.70;;;;;;5035090;28;20033;-69
2024/02/15 12:52:53;;;;;;;14.60;9.68;;;14.90;86.60;;;;;;5034515;28;19917;-69
2024/02/15 12:55:25;;;;;;;13.38;9.13;;;15.00;88.30;;;;;;5034066;28;20108;-69
2024/02/15 12:57:52;;;;;;;15.70;10.55;;;15.00;87.10;;;;;;5034612;28;20492;-68
2024/02/15 13:00:35;;;;;;;14.15;9.63;;;15.10;86.60;;;;;;5034946;28;20029;-68
2024/02/15 13:03:08;;;;;;;13.88;9.50;;;15.10;86.90;;;;;;5034502;28;20079;-68
2024/02/15 13:05:36;;;;;;;17.20;9.35;;;15.20;87.10;;;;;;5034301;28;20500;-69
2024/02/15 13:08:02;;;;;;;15.75;9.70;;;15.20;85.90;;;;;;5034196;28;20132;-69
2024/02/15 13:10:31;;;;;;;14.90;9.75;;;15.30;84.80;;;;;;5034459;28;20033;-69
2024/02/15 13:12:57;;;;;;;14.50;9.07;;;15.30;85.60;;;;;;5033900;28;20505;-69
2024/02/15 13:15:32;;;;;;;13.73;8.98;;;15.40;86.00;;;;;;5034122;28;20108;-69
2024/02/15 13:17:58;;;;;;;14.38;8.23;;;15.40;83.70;;;;;;5032971;28;20351;-69
2024/02/15 13:20:32;;;;;;;12.02;8.18;;;15.50;81.90;;;;;;5034175;28;20541;-68
2024/02/15 13:23:08;;;;;;;13.98;8.57;;;15.50;81.80;;;;;;5033799;28;20025;-69